Time;durP1;ratioP1;P1;durP2;ratioP2;P2;SDS_P1;SDS_P2;PMS_P1;PMS_P2;Temp;Humidity;BMP_temperature;BMP_pressure;BME280_temperature;BME280_humidity;BME280_pressure;Samples;Min_cycle;Max_cycle;Signal;HPM_P1;HPM_P2
2023/01/18 00:00:20;;;;;;;4.55;1.83;;;;;;;-1.55;74.28;97772.22;5000804;28;20046;-49
2023/01/18 00:02:48;;;;;;;6.95;2.15;;;;;;;-1.55;73.93;97768.00;5001882;28;20059;-52
2023/01/18 00:05:15;;;;;;;5.35;2.10;;;;;;;-1.55;74.16;97767.16;4999006;28;20550;-48
2023/01/18 00:07:41;;;;;;;4.05;2.10;;;;;;;-1.56;74.47;97770.50;5000322;28;20061;-49
2023/01/18 00:10:09;;;;;;;6.00;2.17;;;;;;;-1.56;74.43;97773.03;4999891;28;20086;-48
2023/01/18 00:12:36;;;;;;;5.25;1.40;;;;;;;-1.57;74.41;97774.75;4997034;28;20508;-49
2023/01/18 00:15:03;;;;;;;3.65;1.85;;;;;;;-1.58;74.34;97783.19;5001008;28;20054;-49
2023/01/18 00:17:30;;;;;;;6.05;2.47;;;;;;;-1.58;73.98;97780.66;5007286;28;20138;-47
2023/01/18 00:19:57;;;;;;;4.70;1.67;;;;;;;-1.59;74.58;97784.03;5002170;28;20054;-49
2023/01/18 00:22:24;;;;;;;4.88;2.28;;;;;;;-1.57;74.36;97776.44;4997971;28;20046;-48
2023/01/18 00:24:50;;;;;;;4.05;2.40;;;;;;;-1.59;74.51;97781.50;5001412;28;20658;-49
2023/01/18 00:27:17;;;;;;;4.47;1.73;;;;;;;-1.58;74.21;97773.03;5000918;28;20138;-47
2023/01/18 00:29:44;;;;;;;3.17;1.83;;;;;;;-1.56;74.83;97781.53;4999365;28;20038;-49
2023/01/18 00:32:13;;;;;;;7.55;2.17;;;;;;;-1.56;74.52;97789.13;5001121;28;20689;-48
2023/01/18 00:34:40;;;;;;;8.38;2.60;;;;;;;-1.56;74.15;97801.84;5001410;28;20050;-48
2023/01/18 00:37:07;;;;;;;5.32;1.98;;;;;;;-1.57;74.62;97795.06;5002633;28;20501;-47
2023/01/18 00:39:33;;;;;;;5.40;2.55;;;;;;;-1.57;74.43;97805.22;5003419;28;20044;-49
2023/01/18 00:44:47;;;;;;;6.25;2.28;;;;;;;-1.61;74.75;97798.41;4971892;28;20061;-50
2023/01/18 00:47:13;;;;;;;6.70;2.22;;;;;;;-1.63;74.16;97795.00;4983012;28;20042;-49
2023/01/18 00:49:40;;;;;;;4.97;2.30;;;;;;;-1.65;74.61;97785.66;4984650;28;20050;-48
2023/01/18 00:52:07;;;;;;;7.82;3.08;;;;;;;-1.67;74.57;97793.25;4988206;28;20505;-49
2023/01/18 00:54:33;;;;;;;5.97;1.83;;;;;;;-1.69;74.47;97789.88;4986461;28;20077;-51
2023/01/18 00:57:00;;;;;;;5.93;2.17;;;;;;;-1.72;74.06;97774.59;4986282;28;20058;-49
2023/01/18 00:59:27;;;;;;;4.90;2.25;;;;;;;-1.74;74.82;97783.88;4986819;28;20046;-49
2023/01/18 01:01:53;;;;;;;5.00;1.77;;;;;;;-1.76;74.70;97783.03;4985151;28;20587;-48
2023/01/18 01:07:07;;;;;;;4.82;1.90;;;;;;;-1.78;74.20;97779.59;4988465;28;20507;-49
2023/01/18 01:09:33;;;;;;;2.72;1.67;;;;;;;-1.81;73.88;97776.22;4989497;28;20042;-50
2023/01/18 01:26:10;;;;;;;2.80;1.52;;;;;;;-1.82;75.15;97766.88;4966288;28;20047;-50
2023/01/18 01:28:40;;;;;;;3.78;1.15;;;;;;;-1.80;74.55;97754.22;4983852;28;20129;-48
2023/01/18 01:31:10;;;;;;;3.97;1.52;;;;;;;-1.81;74.95;97761.00;4984629;28;21058;-49
2023/01/18 01:33:37;;;;;;;4.95;1.33;;;;;;;-1.78;74.99;97750.03;4981285;28;20610;-48
2023/01/18 01:36:11;;;;;;;4.97;1.30;;;;;;;-1.76;75.06;97760.19;4990000;28;20049;-50
2023/01/18 01:38:40;;;;;;;4.70;1.40;;;;;;;-1.77;75.37;97766.94;4982927;28;20100;-52
2023/01/18 01:41:12;;;;;;;2.75;1.30;;;;;;;-1.76;74.85;97768.63;4976724;28;20409;-49
2023/01/18 01:46:45;;;;;;;2.83;1.08;;;;;;;-1.74;74.87;97771.19;5084726;27;20412;-47
2023/01/18 01:49:18;;;;;;;1.83;1.30;;;;;;;-1.73;75.23;97767.81;5038251;28;20679;-48
2023/01/18 01:51:49;;;;;;;4.20;1.15;;;;;;;-1.72;75.23;97765.28;5036916;28;20107;-49
2023/01/18 01:54:23;;;;;;;3.92;0.95;;;;;;;-1.69;75.28;97772.09;5039124;28;20069;-50
2023/01/18 01:56:55;;;;;;;4.60;1.20;;;;;;;-1.66;75.39;97768.75;5083815;28;20037;-53
2023/01/18 01:59:23;;;;;;;3.63;0.98;;;;;;;-1.63;75.45;97769.59;5055285;28;20122;-47
2023/01/18 02:01:50;;;;;;;2.10;0.90;;;;;;;-1.62;75.93;97771.31;5061756;28;20041;-48
2023/01/18 02:04:17;;;;;;;3.80;1.35;;;;;;;-1.58;76.13;97777.28;5052104;28;20056;-52
2023/01/18 02:06:44;;;;;;;3.28;1.20;;;;;;;-1.57;75.42;97782.38;5052095;28;20496;-49
2023/01/18 02:09:15;;;;;;;6.32;1.58;;;;;;;-1.52;75.97;97776.47;5054290;28;20068;-51
2023/01/18 02:11:42;;;;;;;14.88;1.50;;;;;;;-1.47;75.98;97777.38;5036362;28;20564;-49
2023/01/18 02:14:12;;;;;;;4.10;1.30;;;;;;;-1.44;76.23;97779.94;5029638;28;20049;-50
2023/01/18 02:22:11;;;;;;;4.43;2.58;;;;;;;-1.31;76.01;97789.34;5082776;27;20405;-47
2023/01/18 02:27:42;;;;;;;2.50;1.63;;;;;;;-1.23;75.50;97788.56;5049376;28;20397;-48
2023/01/18 02:30:22;;;;;;;3.38;1.48;;;;;;;-1.21;75.62;97781.81;5041803;28;20050;-47
2023/01/18 02:38:40;;;;;;;2.92;1.30;;;;;;;-1.14;75.40;97778.50;5012001;27;20406;-49
2023/01/18 02:41:22;;;;;;;2.30;1.40;;;;;;;-1.13;75.78;97784.41;4995269;28;20077;-47
2023/01/18 02:46:41;;;;;;;1.75;0.80;;;;;;;-1.18;75.88;97794.56;5004301;28;20081;-50
2023/01/18 02:51:44;;;;;;;3.58;1.38;;;;;;;-1.22;75.88;97786.03;5033474;27;20392;-51
2023/01/18 02:54:15;;;;;;;5.93;3.08;;;;;;;-1.25;76.11;97780.94;4983181;28;20089;-48
2023/01/18 02:56:48;;;;;;;3.72;1.55;;;;;;;-1.30;76.15;97778.38;4982877;28;20114;-49
2023/01/18 03:02:02;;;;;;;2.78;1.58;;;;;;;-1.38;76.04;97787.63;5053184;27;20996;-48
2023/01/18 03:04:37;;;;;;;4.20;1.77;;;;;;;-1.40;75.37;97789.28;5017317;28;20769;-49
2023/01/18 03:07:25;;;;;;;2.25;1.25;;;;;;;-1.43;76.10;97796.88;5055187;28;20076;-48
2023/01/18 03:09:53;;;;;;;7.10;1.67;;;;;;;-1.46;75.26;97796.84;5070632;28;20049;-49
2023/01/18 03:12:44;;;;;;;5.93;1.50;;;;;;;-1.50;76.04;97795.09;5039940;28;20057;-47
2023/01/18 03:15:40;;;;;;;2.83;1.33;;;;;;;-1.55;76.24;97788.28;5045978;28;20493;-48
2023/01/18 03:19:03;;;;;;;3.70;1.63;;;;;;;-1.58;75.77;97793.34;5061616;28;20159;-47
2023/01/18 03:21:50;;;;;;;3.28;1.58;;;;;;;-1.60;75.83;97794.16;5057430;28;20041;-48
2023/01/18 03:24:18;;;;;;;3.83;1.58;;;;;;;-1.63;75.57;97800.06;5032199;28;20148;-48
2023/01/18 03:26:52;;;;;;;2.60;1.50;;;;;;;-1.65;75.89;97804.28;5041569;28;20048;-47
2023/01/18 03:35:11;;;;;;;4.30;1.23;;;;;;;-1.68;76.40;97797.47;5042666;28;20046;-49
2023/01/18 03:37:42;;;;;;;6.97;0.95;;;;;;;-1.68;76.51;97800.00;5033719;28;20049;-48
2023/01/18 03:40:12;;;;;;;2.50;1.15;;;;;;;-1.67;76.08;97798.34;5047930;28;20155;-48
2023/01/18 03:42:47;;;;;;;1.10;0.60;;;;;;;-1.65;76.13;97799.22;5037520;28;20139;-47
2023/01/18 03:45:28;;;;;;;2.42;0.75;;;;;;;-1.64;76.30;97807.66;5051031;28;20056;-48
2023/01/18 03:47:55;;;;;;;2.70;0.50;;;;;;;-1.62;77.47;97801.75;5066469;28;20506;-49
2023/01/18 03:50:27;;;;;;;2.63;0.68;;;;;;;-1.59;77.12;97806.88;5035515;28;20112;-48
2023/01/18 03:52:59;;;;;;;2.33;1.02;;;;;;;-1.58;76.88;97803.50;5035768;28;20054;-49
2023/01/18 03:55:33;;;;;;;3.55;1.00;;;;;;;-1.58;76.92;97803.50;5038435;28;20124;-51
2023/01/18 03:58:08;;;;;;;2.53;0.95;;;;;;;-1.55;77.62;97818.75;5047343;28;20057;-48
2023/01/18 04:00:36;;;;;;;3.17;0.77;;;;;;;-1.55;78.01;97816.22;5056758;28;20513;-48
2023/01/18 04:03:03;;;;;;;3.53;0.73;;;;;;;-1.52;77.39;97810.31;5055250;28;20037;-50
2023/01/18 04:05:31;;;;;;;8.70;1.05;;;;;;;-1.50;76.92;97810.34;5054303;28;20083;-48
2023/01/18 04:07:57;;;;;;;10.95;1.25;;;;;;;-1.49;77.23;97814.59;5069323;28;20445;-52
2023/01/18 04:10:25;;;;;;;2.13;0.90;;;;;;;-1.48;77.03;97814.63;5056862;28;20256;-48
2023/01/18 04:12:52;;;;;;;3.33;1.17;;;;;;;-1.48;77.32;97819.69;5048881;28;20057;-48
2023/01/18 04:15:19;;;;;;;1.38;0.50;;;;;;;-1.46;76.85;97822.22;5031805;28;20041;-51
2023/01/18 04:17:48;;;;;;;2.38;1.20;;;;;;;-1.46;77.27;97818.00;5038719;28;20053;-48
2023/01/18 04:20:15;;;;;;;3.42;1.25;;;;;;;-1.47;77.52;97812.91;5033340;28;20557;-48
2023/01/18 04:22:42;;;;;;;3.72;0.93;;;;;;;-1.47;76.89;97811.25;5034696;28;20099;-47
2023/01/18 04:25:09;;;;;;;2.50;0.95;;;;;;;-1.46;76.44;97817.16;5043732;28;20424;-48
2023/01/18 04:27:35;;;;;;;2.58;1.00;;;;;;;-1.47;77.10;97820.53;5045396;28;20064;-48
2023/01/18 04:30:05;;;;;;;5.10;1.00;;;;;;;-1.47;77.08;97818.00;5042175;28;20049;-48
2023/01/18 04:32:31;;;;;;;3.92;1.35;;;;;;;-1.46;77.43;97822.22;5050791;28;20051;-48
2023/01/18 04:34:58;;;;;;;2.22;1.08;;;;;;;-1.46;77.13;97828.16;5037986;28;20110;-48
2023/01/18 04:37:32;;;;;;;3.20;1.13;;;;;;;-1.40;77.35;97831.59;5038874;28;20053;-48
2023/01/18 04:39:59;;;;;;;2.22;0.80;;;;;;;-1.37;77.89;97819.78;5040262;28;20832;-48
2023/01/18 04:42:26;;;;;;;2.28;0.65;;;;;;;-1.28;77.02;97818.16;5040479;28;20648;-47
2023/01/18 04:44:53;;;;;;;1.17;0.47;;;;;;;-1.22;77.20;97825.84;5040546;28;20056;-49
2023/01/18 04:47:19;;;;;;;1.85;0.80;;;;;;;-1.17;76.90;97819.13;5040875;28;20049;-49
2023/01/18 04:49:46;;;;;;;5.65;0.60;;;;;;;-1.15;77.32;97830.13;5040599;28;20079;-48
2023/01/18 04:52:13;;;;;;;2.85;1.15;;;;;;;-1.15;77.53;97826.75;5040498;28;20053;-49
2023/01/18 04:54:39;;;;;;;2.92;1.52;;;;;;;-1.15;77.34;97830.13;5042704;28;20123;-51
2023/01/18 04:57:06;;;;;;;2.83;1.17;;;;;;;-1.15;77.43;97830.13;5037549;28;20049;-48
2023/01/18 04:59:33;;;;;;;2.25;0.57;;;;;;;-1.18;78.08;97822.50;5042561;28;20052;-47
2023/01/18 05:01:59;;;;;;;3.10;1.13;;;;;;;-1.15;77.71;97832.66;5042452;28;20049;-49
2023/01/18 05:04:26;;;;;;;3.10;0.95;;;;;;;-1.13;77.53;97836.09;5043715;28;20671;-48
2023/01/18 05:06:53;;;;;;;2.83;0.60;;;;;;;-1.12;77.39;97837.78;5042384;28;20059;-48
2023/01/18 05:09:19;;;;;;;2.40;1.38;;;;;;;-1.08;77.91;97833.59;5041388;28;20048;-47
2023/01/18 05:11:46;;;;;;;2.17;0.68;;;;;;;-1.07;77.55;97830.19;5042962;28;20049;-49
2023/01/18 05:14:13;;;;;;;3.80;0.82;;;;;;;-1.05;77.87;97838.66;5042108;28;20462;-49
2023/01/18 05:16:40;;;;;;;3.67;1.27;;;;;;;-1.07;77.71;97833.59;5042692;28;20040;-49
2023/01/18 05:19:06;;;;;;;6.47;0.98;;;;;;;-1.07;77.74;97841.22;5042802;28;20049;-49
2023/01/18 05:21:33;;;;;;;2.40;1.05;;;;;;;-1.07;77.64;97848.84;5033592;28;20045;-48
2023/01/18 05:24:00;;;;;;;1.88;1.00;;;;;;;-1.07;77.79;97856.47;5039348;28;20623;-48
2023/01/18 05:26:26;;;;;;;9.13;0.70;;;;;;;-1.07;77.67;97855.63;5042557;28;21576;-51
2023/01/18 05:28:57;;;;;;;2.90;1.25;;;;;;;-1.04;77.83;97851.41;5038278;28;20052;-48
2023/01/18 05:31:24;;;;;;;2.13;0.95;;;;;;;-1.01;78.07;97854.81;5035402;28;20052;-48
2023/01/18 05:33:51;;;;;;;2.70;1.17;;;;;;;-0.97;77.71;97847.25;5038179;28;20411;-48
2023/01/18 05:36:18;;;;;;;3.25;1.13;;;;;;;-0.93;77.74;97853.19;5040937;28;20056;-51
2023/01/18 05:38:45;;;;;;;2.40;1.13;;;;;;;-0.88;77.57;97863.41;5044378;28;20053;-48
2023/01/18 05:41:12;;;;;;;2.33;0.82;;;;;;;-0.87;78.11;97853.25;5040265;28;20037;-50
2023/01/18 05:43:40;;;;;;;3.47;1.02;;;;;;;-0.83;77.71;97849.03;5039551;28;20044;-49
2023/01/18 05:46:06;;;;;;;1.63;0.93;;;;;;;-0.79;78.03;97855.84;5035210;28;20143;-49
2023/01/18 05:48:33;;;;;;;3.42;1.33;;;;;;;-0.77;77.95;97854.16;5040621;28;20045;-49
2023/01/18 05:51:06;;;;;;;3.65;1.35;;;;;;;-0.76;77.82;97867.72;5042518;28;20049;-48
2023/01/18 05:53:33;;;;;;;2.42;1.00;;;;;;;-0.74;77.65;97873.66;5040423;28;20056;-47
2023/01/18 05:56:04;;;;;;;9.15;2.78;;;;;;;-0.73;77.47;97880.44;5041792;28;20041;-50
2023/01/18 05:58:31;;;;;;;8.18;1.45;;;;;;;-0.73;77.86;97876.22;5052895;28;20125;-50
2023/01/18 06:00:58;;;;;;;2.00;1.05;;;;;;;-0.71;78.07;97873.69;5036625;28;20053;-49
2023/01/18 06:03:24;;;;;;;3.38;0.55;;;;;;;-0.68;78.00;97878.78;5038459;28;20041;-47
2023/01/18 06:05:52;;;;;;;3.03;1.05;;;;;;;-0.68;77.89;97883.88;5036136;28;20048;-48
2023/01/18 06:08:19;;;;;;;1.75;1.00;;;;;;;-0.69;77.97;97882.19;5034302;28;20057;-48
2023/01/18 06:10:55;;;;;;;1.67;0.98;;;;;;;-0.73;78.01;97883.00;5042150;28;20132;-50
2023/01/18 06:13:23;;;;;;;2.03;0.82;;;;;;;-0.73;78.19;97885.53;5055316;28;20068;-48
2023/01/18 06:15:50;;;;;;;4.18;1.05;;;;;;;-0.76;78.06;97895.66;5032994;28;20051;-49
2023/01/18 06:18:17;;;;;;;5.50;1.23;;;;;;;-0.79;77.83;97892.28;5038305;28;20049;-48
2023/01/18 06:20:44;;;;;;;2.58;0.50;;;;;;;-0.80;77.78;97895.66;5042650;28;20573;-49
2023/01/18 06:23:10;;;;;;;1.25;0.60;;;;;;;-0.82;77.45;97897.34;5040643;28;20592;-48
2023/01/18 06:25:37;;;;;;;2.58;0.73;;;;;;;-0.83;77.65;97895.63;5036765;28;20250;-50
2023/01/18 06:28:05;;;;;;;7.22;0.50;;;;;;;-0.86;77.32;97895.59;5042931;28;20044;-48
2023/01/18 06:30:33;;;;;;;3.05;1.05;;;;;;;-0.86;78.08;97903.22;5040945;28;20048;-47
2023/01/18 06:33:05;;;;;;;4.63;1.10;;;;;;;-0.86;77.66;97907.44;5054007;28;20044;-48
2023/01/18 06:35:32;;;;;;;2.38;0.85;;;;;;;-0.89;77.54;97913.38;5045888;28;20045;-48
2023/01/18 06:38:00;;;;;;;4.53;0.98;;;;;;;-0.91;77.73;97922.69;5041047;28;20052;-49
2023/01/18 06:40:27;;;;;;;3.63;0.60;;;;;;;-0.90;77.94;97916.75;5034300;28;20049;-48
2023/01/18 06:42:54;;;;;;;3.85;1.23;;;;;;;-0.92;77.66;97910.78;5039951;28;20506;-49
2023/01/18 06:45:21;;;;;;;7.00;1.40;;;;;;;-0.94;77.45;97909.94;5037649;28;20128;-48
2023/01/18 06:47:48;;;;;;;1.73;1.00;;;;;;;-0.95;77.59;97910.78;5040836;28;20094;-49
2023/01/18 06:50:15;;;;;;;4.55;1.55;;;;;;;-0.98;77.62;97905.69;5047938;28;20099;-49
2023/01/18 06:52:43;;;;;;;1.40;0.88;;;;;;;-1.00;77.70;97912.41;5041625;28;20044;-50
2023/01/18 06:55:12;;;;;;;1.85;1.00;;;;;;;-1.02;77.82;97914.94;5041991;28;20091;-48
2023/01/18 06:57:38;;;;;;;2.55;0.80;;;;;;;-1.02;77.62;97919.19;5039209;28;20072;-49
2023/01/18 07:00:07;;;;;;;4.00;1.23;;;;;;;-1.05;77.86;97910.69;5038700;28;20065;-47
2023/01/18 07:02:35;;;;;;;5.97;1.33;;;;;;;-1.06;77.58;97914.06;5036075;28;20037;-48
2023/01/18 07:05:02;;;;;;;3.17;0.80;;;;;;;-1.07;77.95;97917.47;5059058;28;20045;-50
2023/01/18 07:07:29;;;;;;;3.13;0.88;;;;;;;-1.08;77.55;97930.16;5033117;28;20123;-48
2023/01/18 07:09:56;;;;;;;1.48;0.63;;;;;;;-1.06;77.93;97934.41;5042443;28;20460;-51
2023/01/18 07:12:22;;;;;;;2.55;0.55;;;;;;;-1.04;78.00;97944.59;5037137;28;20075;-48
2023/01/18 07:14:50;;;;;;;5.75;1.33;;;;;;;-1.05;78.02;97951.34;5041464;28;20549;-48
2023/01/18 07:17:16;;;;;;;3.05;0.65;;;;;;;-1.06;77.96;97962.34;5042424;28;20045;-50
2023/01/18 07:19:43;;;;;;;1.83;1.05;;;;;;;-1.04;78.03;97957.28;5041076;28;20041;-50
2023/01/18 07:22:12;;;;;;;1.63;0.68;;;;;;;-0.98;77.86;97959.03;5038912;28;20447;-49
2023/01/18 07:24:38;;;;;;;5.82;1.60;;;;;;;-0.95;78.12;97962.44;5039359;28;20061;-48
2023/01/18 07:27:05;;;;;;;6.80;1.75;;;;;;;-0.92;77.87;97964.16;5039218;28;20124;-48
2023/01/18 07:29:32;;;;;;;12.90;4.15;;;;;;;-0.91;78.19;97965.91;5039753;28;20048;-50
2023/01/18 07:31:59;;;;;;;25.77;9.00;;;;;;;-0.93;77.92;97959.94;5044550;28;20045;-51
2023/01/18 07:34:26;;;;;;;34.38;13.10;;;;;;;-0.93;78.09;97975.19;5035929;28;20049;-49
2023/01/18 07:36:53;;;;;;;20.17;9.65;;;;;;;-0.95;78.04;97967.53;5042589;28;20053;-49
2023/01/18 07:39:20;;;;;;;9.98;4.82;;;;;;;-0.96;78.21;97965.84;5039850;28;20140;-48
2023/01/18 07:41:46;;;;;;;8.05;4.90;;;;;;;-0.97;78.38;97968.38;5038321;28;20087;-49
2023/01/18 07:44:14;;;;;;;4.20;2.85;;;;;;;-0.98;78.35;97975.13;5034441;28;20056;-52
2023/01/18 07:46:41;;;;;;;5.93;1.95;;;;;;;-0.96;78.48;97980.22;5031477;28;20046;-50
2023/01/18 07:49:08;;;;;;;4.70;1.48;;;;;;;-0.94;78.90;97973.47;5041051;28;20128;-51
2023/01/18 07:51:35;;;;;;;7.03;2.90;;;;;;;-0.95;78.17;97977.69;5047847;28;20051;-49
2023/01/18 07:54:02;;;;;;;5.50;1.80;;;;;;;-0.97;78.03;97974.31;5037048;28;20492;-52
2023/01/18 07:56:29;;;;;;;6.43;2.35;;;;;;;-0.96;78.43;97970.06;5038056;28;20068;-49
2023/01/18 07:58:56;;;;;;;3.00;1.33;;;;;;;-0.99;78.29;97973.44;5037981;28;20103;-49
2023/01/18 08:01:23;;;;;;;5.43;2.97;;;;;;;-0.99;78.23;97980.19;5040953;28;20037;-49
2023/01/18 08:03:52;;;;;;;4.78;2.42;;;;;;;-0.99;78.32;97991.22;5040200;28;20235;-49
2023/01/18 08:06:26;;;;;;;5.65;1.90;;;;;;;-0.98;78.50;97992.91;5029172;28;20920;-55
2023/01/18 08:08:54;;;;;;;5.63;2.30;;;;;;;-0.97;78.05;98004.81;5051744;28;20052;-48
2023/01/18 08:11:21;;;;;;;3.78;2.40;;;;;;;-0.92;78.25;98002.28;5046143;28;20048;-50
2023/01/18 08:13:49;;;;;;;7.13;3.03;;;;;;;-0.88;78.43;98004.03;5034699;28;20053;-50
2023/01/18 08:16:16;;;;;;;9.15;2.90;;;;;;;-0.81;78.28;98005.78;5033048;28;20041;-49
2023/01/18 08:18:44;;;;;;;7.07;2.72;;;;;;;-0.72;78.58;98014.34;5036942;28;20053;-50
2023/01/18 08:21:12;;;;;;;6.40;2.03;;;;;;;-0.53;78.83;98020.47;5051262;28;20045;-49
2023/01/18 08:23:39;;;;;;;7.95;2.72;;;;;;;-0.30;78.37;98028.28;5040210;28;20076;-51
2023/01/18 08:26:11;;;;;;;7.38;2.50;;;;;;;-0.24;77.82;98022.41;5040708;28;20212;-52
2023/01/18 08:28:40;;;;;;;19.30;6.15;;;;;;;-0.22;77.83;98030.91;5040166;28;20406;-52
2023/01/18 08:31:14;;;;;;;28.00;9.77;;;;;;;-0.21;77.62;98032.63;5029755;28;20056;-49
2023/01/18 08:33:44;;;;;;;13.15;5.95;;;;;;;-0.19;77.85;98040.25;5040599;28;20056;-51
2023/01/18 08:36:14;;;;;;;8.70;4.03;;;;;;;-0.18;77.98;98047.91;5039716;28;20045;-49
2023/01/18 08:38:41;;;;;;;4.65;2.80;;;;;;;-0.17;78.56;98048.78;5023685;28;20053;-49
2023/01/18 08:41:08;;;;;;;5.88;1.95;;;;;;;-0.12;78.11;98067.47;5052159;28;20107;-51
2023/01/18 08:43:35;;;;;;;5.38;2.00;;;;;;;-0.10;78.22;98060.69;5051901;28;20057;-50
2023/01/18 08:46:01;;;;;;;12.38;4.93;;;;;;;-0.07;78.38;98065.81;5045888;28;20130;-49
2023/01/18 08:48:28;;;;;;;5.05;2.67;;;;;;;-0.06;78.64;98072.63;5045940;28;20543;-48
2023/01/18 08:50:59;;;;;;;6.25;3.30;;;;;;;-0.03;78.62;98075.16;5046289;28;20080;-51
2023/01/18 08:53:27;;;;;;;8.02;4.20;;;;;;;0.01;78.18;98080.28;5058648;28;20037;-50
2023/01/18 08:55:54;;;;;;;7.13;2.20;;;;;;;0.04;78.40;98072.69;5039710;28;20569;-52
2023/01/18 08:58:20;;;;;;;7.05;2.45;;;;;;;0.05;78.25;98075.25;5040182;28;20723;-49
2023/01/18 09:00:49;;;;;;;4.95;1.92;;;;;;;0.08;78.35;98066.78;5051493;28;20060;-51
2023/01/18 09:03:20;;;;;;;5.97;2.67;;;;;;;0.10;78.35;98062.56;5044055;28;20038;-50
2023/01/18 09:05:48;;;;;;;7.07;2.83;;;;;;;0.13;78.57;98070.19;5036010;28;20052;-51
2023/01/18 09:08:15;;;;;;;13.80;4.20;;;;;;;0.17;78.82;98071.09;5042870;28;20348;-49
2023/01/18 09:10:42;;;;;;;9.48;3.88;;;;;;;0.20;78.17;98074.50;5038136;28;20060;-51
2023/01/18 09:13:09;;;;;;;11.93;3.47;;;;;;;0.23;77.79;98077.06;5042961;28;20083;-51
2023/01/18 09:15:37;;;;;;;9.90;3.80;;;;;;;0.27;78.55;98084.75;5042800;28;20083;-49
2023/01/18 09:18:05;;;;;;;17.98;5.40;;;;;;;0.31;78.47;98091.56;5040454;28;20052;-51
2023/01/18 09:20:35;;;;;;;10.52;3.30;;;;;;;0.34;78.01;98091.59;5039656;28;20052;-51
2023/01/18 09:23:06;;;;;;;12.02;3.85;;;;;;;0.37;78.70;98096.69;5040840;28;20056;-50
2023/01/18 09:25:35;;;;;;;28.40;7.60;;;;;;;0.46;78.13;98096.75;5041110;28;20084;-49
2023/01/18 09:28:03;;;;;;;40.97;10.48;;;;;;;0.50;78.68;98103.56;5030088;28;20051;-52
2023/01/18 09:30:31;;;;;;;10.93;3.30;;;;;;;0.55;77.99;98110.38;5038560;28;20096;-50
2023/01/18 09:32:57;;;;;;;16.45;4.55;;;;;;;0.57;77.67;98111.28;5046522;28;20122;-52
2023/01/18 09:35:25;;;;;;;13.50;5.45;;;;;;;1.22;78.90;98119.22;5040052;28;20048;-50
2023/01/18 09:37:53;;;;;;;19.02;4.70;;;;;;;1.80;78.25;98117.69;5046523;28;20088;-50
2023/01/18 09:40:23;;;;;;;15.73;4.32;;;;;;;2.85;79.24;98121.91;5040213;28;20053;-50
2023/01/18 09:42:51;;;;;;;3.95;1.85;;;;;;;3.95;77.71;98126.50;5027689;28;20041;-51
2023/01/18 09:48:03;;;;;;;9.30;4.93;;;;;;;5.02;73.67;98136.69;5060554;28;20387;-50
2023/01/18 09:50:37;;;;;;;8.57;3.88;;;;;;;5.08;73.45;98138.31;5002669;28;20430;-54
2023/01/18 09:53:21;;;;;;;8.70;3.75;;;;;;;5.13;73.00;98146.81;5025854;28;20609;-52
2023/01/18 10:01:31;;;;;;;7.65;2.92;;;;;;;6.15;72.70;98162.63;5036737;28;20421;-51
2023/01/18 10:04:06;;;;;;;13.90;4.47;;;;;;;6.97;73.20;98153.59;5019690;28;20045;-50
2023/01/18 10:06:55;;;;;;;8.13;4.28;;;;;;;8.00;72.42;98164.41;5037662;28;20080;-50
2023/01/18 10:09:32;;;;;;;7.85;3.20;;;;;;;8.74;69.89;98175.56;5026850;28;20041;-52
2023/01/18 10:14:53;;;;;;;5.82;3.17;;;;;;;9.85;67.17;98174.25;5018842;27;21248;-49
2023/01/18 10:17:24;;;;;;;7.88;3.47;;;;;;;10.41;65.85;98181.16;5016754;28;20053;-53
2023/01/18 10:19:51;;;;;;;5.47;3.67;;;;;;;10.92;65.13;98186.41;5031870;28;20049;-52
2023/01/18 10:22:25;;;;;;;4.72;3.00;;;;;;;11.28;64.23;98198.16;5018744;28;20042;-52
2023/01/18 10:25:20;;;;;;;4.70;2.38;;;;;;;11.24;62.89;98203.50;5019679;28;20756;-53
2023/01/18 10:28:11;;;;;;;4.57;3.35;;;;;;;10.87;59.90;98203.88;5023723;28;20057;-54
2023/01/18 10:31:18;;;;;;;6.57;2.58;;;;;;;10.91;60.13;98209.81;5017342;28;20038;-52
2023/01/18 10:33:47;;;;;;;3.45;2.35;;;;;;;10.73;59.01;98200.88;5008187;28;20053;-54
2023/01/18 10:36:19;;;;;;;3.55;2.50;;;;;;;10.46;60.53;98209.50;5019966;28;20049;-54
2023/01/18 10:38:49;;;;;;;3.40;3.05;;;;;;;10.44;60.10;98213.88;5017770;28;20050;-52
2023/01/18 10:41:24;;;;;;;2.70;1.08;;;;;;;10.73;60.36;98204.34;5020234;28;20601;-55
2023/01/18 10:43:51;;;;;;;3.83;2.13;;;;;;;11.10;58.46;98214.34;5015498;28;20049;-55
2023/01/18 10:46:18;;;;;;;3.63;2.40;;;;;;;11.35;57.36;98216.09;5023136;28;20116;-51
2023/01/18 10:48:48;;;;;;;5.53;2.92;;;;;;;11.36;56.50;98228.16;5016842;28;20054;-53
2023/01/18 10:51:36;;;;;;;4.50;2.47;;;;;;;10.87;54.62;98234.09;5029649;28;20045;-54
2023/01/18 10:54:25;;;;;;;4.07;2.72;;;;;;;10.23;54.61;98233.50;5003684;28;20069;-57
2023/01/18 10:57:01;;;;;;;3.60;2.25;;;;;;;9.62;55.79;98243.00;5017947;28;20542;-53
2023/01/18 10:59:35;;;;;;;3.50;2.28;;;;;;;9.05;57.23;98251.38;5011875;28;20135;-55
2023/01/18 11:02:03;;;;;;;6.13;2.95;;;;;;;8.60;58.37;98249.88;5018183;28;20085;-51
2023/01/18 11:04:32;;;;;;;3.90;3.20;;;;;;;8.31;59.62;98256.53;5020542;28;20054;-57
2023/01/18 11:07:01;;;;;;;6.00;2.55;;;;;;;8.07;60.03;98258.78;5018808;28;20104;-54
2023/01/18 11:23:17;;;;;;;5.22;1.20;;;;;;;6.57;62.85;98264.03;5009198;28;21234;-55
2023/01/18 11:28:44;;;;;;;12.32;3.83;;;;;;;6.15;62.59;98273.19;5053781;27;20892;-53
2023/01/18 11:31:16;;;;;;;6.07;1.90;;;;;;;6.00;62.26;98278.50;5031037;28;20507;-53
2023/01/18 11:34:06;;;;;;;6.43;1.00;;;;;;;5.72;63.57;98281.41;5041418;28;20099;-49
2023/01/18 11:36:37;;;;;;;15.85;5.90;;;;;;;5.62;64.48;98280.66;5022014;28;20107;-54
2023/01/18 11:39:26;;;;;;;4.78;1.52;;;;;;;5.42;63.68;98283.41;5022272;28;20037;-51
2023/01/18 11:47:36;;;;;;;2.75;1.38;;;;;;;4.94;65.47;98282.16;5005769;28;20432;-55
2023/01/18 11:53:08;;;;;;;2.50;2.30;;;;;;;4.68;66.68;98288.31;5068337;27;20422;-55
2023/01/18 11:55:46;;;;;;;5.35;2.60;;;;;;;4.59;66.37;98287.53;5071221;28;20068;-54
2023/01/18 11:58:23;;;;;;;3.75;1.67;;;;;;;4.41;66.72;98287.66;5065828;28;20063;-50
2023/01/18 12:00:57;;;;;;;;;;;;;;;4.31;67.79;98291.97;5081170;28;20052;-53
2023/01/18 12:06:21;;;;;;;1.10;0.40;;;;;;;4.23;68.33;98289.47;5039991;28;20409;-50
2023/01/18 12:09:07;;;;;;;2.58;1.02;;;;;;;4.27;68.99;98291.16;4999876;28;20132;-54
2023/01/18 12:19:58;;;;;;;1.17;0.75;;;;;;;4.04;68.39;98304.06;5016893;28;20416;-52
2023/01/18 12:28:12;;;;;;;3.30;0.90;;;;;;;3.88;68.56;98303.31;5069784;27;20397;-54
2023/01/18 12:31:01;;;;;;;2.03;1.13;;;;;;;3.79;69.06;98315.28;5019542;28;20107;-49
2023/01/18 12:39:23;;;;;;;1.92;1.83;;;;;;;3.67;69.90;98326.41;5008696;27;20403;-51
2023/01/18 12:42:04;;;;;;;2.35;2.13;;;;;;;3.58;70.14;98326.44;4991886;28;20136;-49
2023/01/18 12:49:58;;;;;;;9.95;1.88;;;;;;;3.59;70.45;98317.88;5025538;27;20750;-52
2023/01/18 12:52:27;;;;;;;2.88;2.03;;;;;;;3.55;71.05;98322.16;4997656;28;20058;-50
2023/01/18 12:54:58;;;;;;;1.90;1.75;;;;;;;3.53;71.00;98318.75;4995125;28;20050;-52
2023/01/18 12:57:25;;;;;;;3.80;2.05;;;;;;;3.54;71.23;98314.47;5000924;28;20050;-53
2023/01/18 12:59:58;;;;;;;2.83;2.58;;;;;;;3.55;71.16;98327.28;5000836;28;20086;-50
2023/01/18 13:05:42;;;;;;;5.07;0.60;;;;;;;3.52;71.36;98340.09;5009803;28;20423;-50
2023/01/18 13:08:14;;;;;;;5.38;0.57;;;;;;;3.64;70.79;98340.94;5013280;28;20058;-50
2023/01/18 13:10:42;;;;;;;2.45;1.08;;;;;;;3.68;70.57;98350.31;5001066;28;20046;-48
2023/01/18 13:13:26;;;;;;;4.43;0.98;;;;;;;3.81;70.89;98344.28;5001452;28;20406;-51
2023/01/18 13:16:05;;;;;;;2.03;0.68;;;;;;;3.81;70.26;98345.97;4997692;28;20324;-49
2023/01/18 13:18:41;;;;;;;1.75;0.80;;;;;;;3.88;70.35;98346.84;4998849;28;20199;-49
2023/01/18 13:27:07;;;;;;;4.90;0.80;;;;;;;3.99;69.76;98363.88;5052993;28;20387;-50
2023/01/18 13:29:35;;;;;;;4.00;0.82;;;;;;;3.92;69.57;98362.19;5004326;28;20129;-50
2023/01/18 13:32:02;;;;;;;2.70;1.00;;;;;;;3.94;69.58;98365.59;5010412;28;20076;-50
2023/01/18 13:34:34;;;;;;;9.95;1.00;;;;;;;3.85;70.18;98363.91;5003380;28;20050;-51
2023/01/18 13:37:52;;;;;;;2.90;0.63;;;;;;;3.79;70.98;98366.50;5002083;28;20048;-53
2023/01/18 13:40:28;;;;;;;5.63;1.13;;;;;;;3.78;70.48;98375.03;4998557;28;20049;-50
2023/01/18 13:42:55;;;;;;;4.57;0.95;;;;;;;3.74;70.42;98368.19;5011256;28;20060;-48
2023/01/18 13:45:25;;;;;;;7.50;1.40;;;;;;;3.80;70.42;98375.88;5008533;28;20039;-48
2023/01/18 13:53:18;;;;;;;4.15;1.00;;;;;;;3.76;70.32;98384.44;5026196;28;20441;-51
2023/01/18 13:58:52;;;;;;;3.53;1.30;;;;;;;3.65;70.69;98388.72;5018870;28;20422;-54
2023/01/18 14:01:22;;;;;;;2.28;1.17;;;;;;;3.60;70.52;98389.56;4985354;28;20074;-53